sensor_id;sensor_type;location;lat;lon;timestamp;pressure;altitude;pressure_sealevel;temperature;humidity
33280;BME280;20403;43.114;12.434;2022-09-09T00:04:36;98966.50;;;21.33;100.00
33280;BME280;20403;43.114;12.434;2022-09-09T00:10:03;98958.94;;;21.26;100.00
33280;BME280;20403;43.114;12.434;2022-09-09T00:12:48;98963.34;;;21.31;100.00
33280;BME280;20403;43.114;12.434;2022-09-09T00:15:19;98966.97;;;21.21;100.00
33280;BME280;20403;43.114;12.434;2022-09-09T00:17:49;98953.81;;;21.16;100.00
33280;BME280;20403;43.114;12.434;2022-09-09T00:23:33;98948.59;;;20.97;100.00
33280;BME280;20403;43.114;12.434;2022-09-09T00:25:49;98938.00;;;20.97;100.00
33280;BME280;20403;43.114;12.434;2022-09-09T00:28:20;98930.31;;;20.95;100.00
33280;BME280;20403;43.114;12.434;2022-09-09T00:30:47;98934.28;;;20.84;100.00
33280;BME280;20403;43.114;12.434;2022-09-09T00:33:13;98936.94;;;20.84;100.00
33280;BME280;20403;43.114;12.434;2022-09-09T00:35:50;98932.59;;;20.88;100.00
33280;BME280;20403;43.114;12.434;2022-09-09T00:38:18;98939.56;;;20.84;100.00
33280;BME280;20403;43.114;12.434;2022-09-09T00:40:56;98943.38;;;20.78;100.00
33280;BME280;20403;43.114;12.434;2022-09-09T00:43:28;98951.22;;;20.69;100.00
33280;BME280;20403;43.114;12.434;2022-09-09T00:51:09;98945.78;;;20.61;100.00
33280;BME280;20403;43.114;12.434;2022-09-09T00:53:53;98940.84;;;20.73;100.00
33280;BME280;20403;43.114;12.434;2022-09-09T00:56:57;98943.38;;;20.64;100.00
33280;BME280;20403;43.114;12.434;2022-09-09T00:59:23;98955.75;;;20.50;100.00
33280;BME280;20403;43.114;12.434;2022-09-09T01:01:51;98953.69;;;20.47;100.00
33280;BME280;20403;43.114;12.434;2022-09-09T01:04:20;98963.28;;;20.62;100.00
33280;BME280;20403;43.114;12.434;2022-09-09T01:06:49;98963.41;;;20.51;100.00
33280;BME280;20403;43.114;12.434;2022-09-09T01:14:43;98955.25;;;20.81;100.00
33280;BME280;20403;43.114;12.434;2022-09-09T01:27:34;98947.66;;;20.60;100.00
33280;BME280;20403;43.114;12.434;2022-09-09T01:30:00;98952.25;;;20.54;100.00
33280;BME280;20403;43.114;12.434;2022-09-09T01:35:03;98939.28;;;20.53;100.00
33280;BME280;20403;43.114;12.434;2022-09-09T01:37:29;98940.84;;;20.54;100.00
33280;BME280;20403;43.114;12.434;2022-09-09T01:39:54;98939.72;;;20.60;100.00
33280;BME280;20403;43.114;12.434;2022-09-09T01:42:19;98928.53;;;20.63;100.00
33280;BME280;20403;43.114;12.434;2022-09-09T01:44:44;98925.09;;;20.63;100.00
33280;BME280;20403;43.114;12.434;2022-09-09T01:47:10;98925.19;;;20.58;100.00
33280;BME280;20403;43.114;12.434;2022-09-09T01:49:35;98927.13;;;20.52;100.00
33280;BME280;20403;43.114;12.434;2022-09-09T01:52:00;98925.97;;;20.58;100.00
33280;BME280;20403;43.114;12.434;2022-09-09T01:54:26;98925.25;;;20.52;100.00
33280;BME280;20403;43.114;12.434;2022-09-09T02:04:45;98924.44;;;20.38;100.00
33280;BME280;20403;43.114;12.434;2022-09-09T02:09:37;98935.31;;;20.36;100.00
33280;BME280;20403;43.114;12.434;2022-09-09T02:12:08;98934.53;;;20.36;100.00
33280;BME280;20403;43.114;12.434;2022-09-09T02:14:38;98937.00;;;20.46;100.00
33280;BME280;20403;43.114;12.434;2022-09-09T02:17:10;98940.81;;;20.40;100.00
33280;BME280;20403;43.114;12.434;2022-09-09T02:19:49;98936.19;;;20.32;100.00
33280;BME280;20403;43.114;12.434;2022-09-09T02:22:18;98932.16;;;20.34;100.00
33280;BME280;20403;43.114;12.434;2022-09-09T02:24:46;98928.66;;;20.39;100.00
33280;BME280;20403;43.114;12.434;2022-09-09T02:27:12;98928.38;;;20.41;100.00
33280;BME280;20403;43.114;12.434;2022-09-09T02:29:40;98933.16;;;20.39;100.00
33280;BME280;20403;43.114;12.434;2022-09-09T02:32:07;98935.72;;;20.44;100.00
33280;BME280;20403;43.114;12.434;2022-09-09T02:34:35;98936.31;;;20.41;100.00
33280;BME280;20403;43.114;12.434;2022-09-09T02:37:01;98932.66;;;20.36;100.00
33280;BME280;20403;43.114;12.434;2022-09-09T02:39:28;98931.31;;;20.39;100.00
33280;BME280;20403;43.114;12.434;2022-09-09T02:41:53;98925.38;;;20.28;100.00
33280;BME280;20403;43.114;12.434;2022-09-09T02:44:19;98927.66;;;20.35;100.00
33280;BME280;20403;43.114;12.434;2022-09-09T02:49:17;98923.22;;;20.30;100.00
33280;BME280;20403;43.114;12.434;2022-09-09T02:52:20;98916.88;;;20.31;100.00
33280;BME280;20403;43.114;12.434;2022-09-09T02:54:41;98907.69;;;20.43;100.00
33280;BME280;20403;43.114;12.434;2022-09-09T02:57:12;98916.41;;;20.43;100.00
33280;BME280;20403;43.114;12.434;2022-09-09T02:59:39;98907.06;;;20.32;100.00
33280;BME280;20403;43.114;12.434;2022-09-09T03:02:05;98905.19;;;20.32;100.00
33280;BME280;20403;43.114;12.434;2022-09-09T03:04:30;98905.78;;;20.29;100.00
33280;BME280;20403;43.114;12.434;2022-09-09T03:06:56;98903.91;;;20.30;100.00
33280;BME280;20403;43.114;12.434;2022-09-09T03:09:22;98911.63;;;20.26;100.00
33280;BME280;20403;43.114;12.434;2022-09-09T03:11:47;98902.72;;;20.22;100.00
33280;BME280;20403;43.114;12.434;2022-09-09T03:14:12;98898.28;;;20.18;100.00
33280;BME280;20403;43.114;12.434;2022-09-09T03:16:38;98891.91;;;20.19;100.00
33280;BME280;20403;43.114;12.434;2022-09-09T03:19:03;98896.22;;;20.14;100.00
33280;BME280;20403;43.114;12.434;2022-09-09T03:21:28;98897.94;;;20.05;100.00
33280;BME280;20403;43.114;12.434;2022-09-09T03:23:53;98899.31;;;20.03;100.00
33280;BME280;20403;43.114;12.434;2022-09-09T03:26:19;98901.75;;;19.99;100.00
33280;BME280;20403;43.114;12.434;2022-09-09T03:28:45;98896.47;;;19.99;100.00
33280;BME280;20403;43.114;12.434;2022-09-09T03:31:10;98894.59;;;20.00;100.00
33280;BME280;20403;43.114;12.434;2022-09-09T03:33:38;98891.31;;;19.89;100.00
33280;BME280;20403;43.114;12.434;2022-09-09T03:36:04;98893.03;;;19.80;100.00
33280;BME280;20403;43.114;12.434;2022-09-09T03:38:29;98888.06;;;19.78;100.00
33280;BME280;20403;43.114;12.434;2022-09-09T03:40:55;98883.91;;;19.72;100.00
33280;BME280;20403;43.114;12.434;2022-09-09T03:43:22;98878.72;;;19.62;100.00
33280;BME280;20403;43.114;12.434;2022-09-09T03:45:47;98882.25;;;19.57;100.00
33280;BME280;20403;43.114;12.434;2022-09-09T03:48:13;98883.22;;;19.61;100.00
33280;BME280;20403;43.114;12.434;2022-09-09T03:50:43;98891.59;;;19.68;100.00
33280;BME280;20403;43.114;12.434;2022-09-09T03:53:09;98890.69;;;19.78;100.00
33280;BME280;20403;43.114;12.434;2022-09-09T03:55:34;98894.19;;;19.73;100.00
33280;BME280;20403;43.114;12.434;2022-09-09T03:58:00;98889.50;;;19.65;100.00
33280;BME280;20403;43.114;12.434;2022-09-09T04:00:25;98884.31;;;19.60;100.00
33280;BME280;20403;43.114;12.434;2022-09-09T04:02:51;98896.34;;;19.71;100.00
33280;BME280;20403;43.114;12.434;2022-09-09T04:05:19;98896.41;;;19.85;100.00
33280;BME280;20403;43.114;12.434;2022-09-09T04:07:44;98902.25;;;19.82;100.00
33280;BME280;20403;43.114;12.434;2022-09-09T04:10:09;98898.63;;;19.78;100.00
33280;BME280;20403;43.114;12.434;2022-09-09T04:12:35;98906.63;;;19.73;100.00
33280;BME280;20403;43.114;12.434;2022-09-09T04:15:00;98906.47;;;19.64;100.00
33280;BME280;20403;43.114;12.434;2022-09-09T04:17:27;98907.34;;;19.79;100.00
33280;BME280;20403;43.114;12.434;2022-09-09T04:19:52;98906.00;;;19.81;100.00
33280;BME280;20403;43.114;12.434;2022-09-09T04:22:17;98903.63;;;19.80;100.00
33280;BME280;20403;43.114;12.434;2022-09-09T04:24:42;98903.69;;;19.75;100.00
33280;BME280;20403;43.114;12.434;2022-09-09T04:27:08;98903.94;;;19.78;100.00
33280;BME280;20403;43.114;12.434;2022-09-09T04:29:33;98909.41;;;19.82;100.00
33280;BME280;20403;43.114;12.434;2022-09-09T04:31:58;98906.22;;;19.85;100.00
33280;BME280;20403;43.114;12.434;2022-09-09T04:34:24;98903.63;;;19.80;100.00
33280;BME280;20403;43.114;12.434;2022-09-09T04:36:50;98904.72;;;19.79;100.00
33280;BME280;20403;43.114;12.434;2022-09-09T04:39:16;98914.44;;;19.83;100.00
33280;BME280;20403;43.114;12.434;2022-09-09T04:41:42;98914.72;;;19.82;100.00
33280;BME280;20403;43.114;12.434;2022-09-09T04:44:07;98910.41;;;19.86;100.00
33280;BME280;20403;43.114;12.434;2022-09-09T04:46:32;98907.78;;;19.86;100.00
33280;BME280;20403;43.114;12.434;2022-09-09T04:48:59;98912.19;;;20.09;100.00
33280;BME280;20403;43.114;12.434;2022-09-09T04:51:24;98908.75;;;20.09;100.00
33280;BME280;20403;43.114;12.434;2022-09-09T04:53:50;98908.03;;;20.03;100.00
33280;BME280;20403;43.114;12.434;2022-09-09T04:56:16;98904.97;;;19.96;100.00
33280;BME280;20403;43.114;12.434;2022-09-09T04:58:42;98910.41;;;19.86;100.00
33280;BME280;20403;43.114;12.434;2022-09-09T05:03:36;98917.06;;;20.02;100.00
33280;BME280;20403;43.114;12.434;2022-09-09T05:06:09;98904.63;;;19.84;100.00
33280;BME280;20403;43.114;12.434;2022-09-09T05:08:38;98906.19;;;20.04;100.00
33280;BME280;20403;43.114;12.434;2022-09-09T05:11:12;98908.47;;;20.10;100.00
33280;BME280;20403;43.114;12.434;2022-09-09T05:13:37;98914.97;;;20.18;100.00
33280;BME280;20403;43.114;12.434;2022-09-09T05:16:02;98915.47;;;20.20;100.00
33280;BME280;20403;43.114;12.434;2022-09-09T05:18:28;98917.28;;;20.06;100.00
33280;BME280;20403;43.114;12.434;2022-09-09T05:20:58;98922.41;;;20.16;100.00
33280;BME280;20403;43.114;12.434;2022-09-09T05:23:23;98924.56;;;20.14;100.00
33280;BME280;20403;43.114;12.434;2022-09-09T05:25:55;98928.69;;;20.20;100.00
33280;BME280;20403;43.114;12.434;2022-09-09T05:28:22;98936.78;;;20.29;100.00
33280;BME280;20403;43.114;12.434;2022-09-09T05:30:54;98932.75;;;20.31;100.00
33280;BME280;20403;43.114;12.434;2022-09-09T05:33:19;98932.09;;;20.40;100.00
33280;BME280;20403;43.114;12.434;2022-09-09T05:35:46;98935.31;;;20.36;100.00
33280;BME280;20403;43.114;12.434;2022-09-09T05:38:11;98937.59;;;20.43;100.00
33280;BME280;20403;43.114;12.434;2022-09-09T05:40:36;98929.63;;;20.62;100.00
33280;BME280;20403;43.114;12.434;2022-09-09T05:43:01;98930.72;;;20.61;100.00
33280;BME280;20403;43.114;12.434;2022-09-09T05:45:27;98935.50;;;20.59;100.00
33280;BME280;20403;43.114;12.434;2022-09-09T05:47:52;98942.97;;;20.57;100.00
33280;BME280;20403;43.114;12.434;2022-09-09T05:50:20;98937.47;;;20.67;100.00
33280;BME280;20403;43.114;12.434;2022-09-09T05:52:45;98933.34;;;20.61;100.00
33280;BME280;20403;43.114;12.434;2022-09-09T05:55:10;98930.41;;;20.63;100.00
33280;BME280;20403;43.114;12.434;2022-09-09T05:57:35;98926.09;;;20.81;100.00
33280;BME280;20403;43.114;12.434;2022-09-09T06:00:01;98933.28;;;20.94;100.00
33280;BME280;20403;43.114;12.434;2022-09-09T06:02:26;98922.97;;;21.06;100.00
33280;BME280;20403;43.114;12.434;2022-09-09T06:04:51;98926.50;;;21.15;100.00
33280;BME280;20403;43.114;12.434;2022-09-09T06:07:17;98925.72;;;21.29;100.00
33280;BME280;20403;43.114;12.434;2022-09-09T06:09:42;98925.81;;;21.37;100.00
33280;BME280;20403;43.114;12.434;2022-09-09T06:12:09;98920.41;;;21.56;100.00
33280;BME280;20403;43.114;12.434;2022-09-09T06:14:34;98931.69;;;21.62;100.00
33280;BME280;20403;43.114;12.434;2022-09-09T06:16:59;98933.34;;;21.58;100.00
33280;BME280;20403;43.114;12.434;2022-09-09T06:19:25;98936.84;;;21.81;100.00
33280;BME280;20403;43.114;12.434;2022-09-09T06:21:51;98937.41;;;21.92;100.00
33280;BME280;20403;43.114;12.434;2022-09-09T06:24:16;98937.41;;;21.92;100.00
33280;BME280;20403;43.114;12.434;2022-09-09T06:26:44;98936.38;;;22.01;100.00
33280;BME280;20403;43.114;12.434;2022-09-09T06:29:10;98935.88;;;21.99;100.00
33280;BME280;20403;43.114;12.434;2022-09-09T06:31:35;98935.06;;;22.13;100.00
33280;BME280;20403;43.114;12.434;2022-09-09T06:34:03;98932.28;;;22.18;100.00
33280;BME280;20403;43.114;12.434;2022-09-09T06:36:33;98935.50;;;22.29;100.00
33280;BME280;20403;43.114;12.434;2022-09-09T06:38:59;98934.47;;;22.38;100.00
33280;BME280;20403;43.114;12.434;2022-09-09T06:41:26;98936.06;;;22.39;100.00
33280;BME280;20403;43.114;12.434;2022-09-09T06:43:52;98939.13;;;22.64;100.00
33280;BME280;20403;43.114;12.434;2022-09-09T06:46:21;98940.31;;;22.80;100.00
33280;BME280;20403;43.114;12.434;2022-09-09T06:48:46;98933.69;;;23.00;100.00
33280;BME280;20403;43.114;12.434;2022-09-09T06:51:16;98940.75;;;23.05;100.00
33280;BME280;20403;43.114;12.434;2022-09-09T06:53:43;98927.16;;;23.15;100.00
33280;BME280;20403;43.114;12.434;2022-09-09T06:58:34;98933.41;;;23.11;100.00
33280;BME280;20403;43.114;12.434;2022-09-09T07:01:06;98929.38;;;23.22;100.00
33280;BME280;20403;43.114;12.434;2022-09-09T07:03:32;98923.59;;;23.28;100.00
33280;BME280;20403;43.114;12.434;2022-09-09T07:05:58;98928.97;;;23.55;100.00
33280;BME280;20403;43.114;12.434;2022-09-09T07:08:24;98928.03;;;23.68;100.00
33280;BME280;20403;43.114;12.434;2022-09-09T07:10:50;98933.50;;;23.63;100.00
33280;BME280;20403;43.114;12.434;2022-09-09T07:13:16;98936.84;;;23.86;100.00
33280;BME280;20403;43.114;12.434;2022-09-09T07:15:41;98937.47;;;24.18;100.00
33280;BME280;20403;43.114;12.434;2022-09-09T07:18:07;98937.56;;;24.39;100.00
33280;BME280;20403;43.114;12.434;2022-09-09T07:20:32;98937.06;;;24.63;100.00
33280;BME280;20403;43.114;12.434;2022-09-09T07:22:57;98933.88;;;24.78;100.00
33280;BME280;20403;43.114;12.434;2022-09-09T07:25:24;98930.69;;;24.93;100.00
33280;BME280;20403;43.114;12.434;2022-09-09T07:27:53;98936.19;;;24.88;100.00
33280;BME280;20403;43.114;12.434;2022-09-09T07:30:18;98937.50;;;25.12;100.00
33280;BME280;20403;43.114;12.434;2022-09-09T07:32:44;98930.84;;;25.27;100.00
33280;BME280;20403;43.114;12.434;2022-09-09T07:35:09;98938.88;;;25.48;100.00
33280;BME280;20403;43.114;12.434;2022-09-09T07:37:36;98931.72;;;25.40;100.00
33280;BME280;20403;43.114;12.434;2022-09-09T07:40:01;98933.53;;;25.48;100.00
33280;BME280;20403;43.114;12.434;2022-09-09T07:42:28;98937.59;;;25.54;100.00
33280;BME280;20403;43.114;12.434;2022-09-09T07:44:54;98932.88;;;25.51;100.00
33280;BME280;20403;43.114;12.434;2022-09-09T07:47:20;98936.28;;;25.60;100.00
33280;BME280;20403;43.114;12.434;2022-09-09T07:49:45;98938.97;;;25.81;100.00
33280;BME280;20403;43.114;12.434;2022-09-09T07:52:11;98937.19;;;26.06;100.00
33280;BME280;20403;43.114;12.434;2022-09-09T07:54:37;98932.81;;;26.02;100.00
33280;BME280;20403;43.114;12.434;2022-09-09T07:57:02;98944.78;;;26.04;100.00
33280;BME280;20403;43.114;12.434;2022-09-09T07:59:28;98937.84;;;26.03;100.00
33280;BME280;20403;43.114;12.434;2022-09-09T08:01:55;98943.25;;;25.52;100.00
33280;BME280;20403;43.114;12.434;2022-09-09T08:04:21;98945.16;;;25.73;100.00
33280;BME280;20403;43.114;12.434;2022-09-09T08:06:48;98946.63;;;25.62;100.00
33280;BME280;20403;43.114;12.434;2022-09-09T08:09:14;98949.06;;;25.75;100.00
33280;BME280;20403;43.114;12.434;2022-09-09T08:11:39;98940.53;;;26.03;100.00
33280;BME280;20403;43.114;12.434;2022-09-09T08:14:06;98940.78;;;26.10;100.00
33280;BME280;20403;43.114;12.434;2022-09-09T08:16:33;98945.09;;;26.03;100.00
33280;BME280;20403;43.114;12.434;2022-09-09T08:19:01;98952.38;;;25.72;100.00
33280;BME280;20403;43.114;12.434;2022-09-09T08:21:27;98952.97;;;25.78;100.00
33280;BME280;20403;43.114;12.434;2022-09-09T08:23:55;98948.53;;;26.03;100.00
33280;BME280;20403;43.114;12.434;2022-09-09T08:26:22;98954.53;;;26.33;100.00
33280;BME280;20403;43.114;12.434;2022-09-09T08:28:48;98952.97;;;26.66;100.00
33280;BME280;20403;43.114;12.434;2022-09-09T08:31:16;98959.47;;;26.89;100.00
33280;BME280;20403;43.114;12.434;2022-09-09T08:33:42;98950.75;;;26.68;100.00
33280;BME280;20403;43.114;12.434;2022-09-09T08:36:11;98961.81;;;26.78;100.00
33280;BME280;20403;43.114;12.434;2022-09-09T08:38:37;98959.81;;;27.00;100.00
33280;BME280;20403;43.114;12.434;2022-09-09T08:43:39;98954.09;;;26.65;100.00
33280;BME280;20403;43.114;12.434;2022-09-09T08:46:16;98958.00;;;26.67;100.00
33280;BME280;20403;43.114;12.434;2022-09-09T08:48:48;98959.69;;;26.72;100.00
33280;BME280;20403;43.114;12.434;2022-09-09T08:51:17;98967.06;;;26.99;100.00
33280;BME280;20403;43.114;12.434;2022-09-09T08:53:44;98963.84;;;27.06;100.00
33280;BME280;20403;43.114;12.434;2022-09-09T08:56:12;98965.50;;;27.11;100.00
33280;BME280;20403;43.114;12.434;2022-09-09T08:58:49;98966.50;;;27.31;100.00
33280;BME280;20403;43.114;12.434;2022-09-09T09:12:15;98950.38;;;27.80;100.00
33280;BME280;20403;43.114;12.434;2022-09-09T09:14:40;98945.09;;;28.12;100.00
33280;BME280;20403;43.114;12.434;2022-09-09T09:17:09;98941.66;;;28.11;100.00
33280;BME280;20403;43.114;12.434;2022-09-09T09:19:38;98939.75;;;27.83;100.00
33280;BME280;20403;43.114;12.434;2022-09-09T09:22:14;98943.72;;;28.02;100.00
33280;BME280;20403;43.114;12.434;2022-09-09T09:25:00;98937.72;;;28.37;100.00
33280;BME280;20403;43.114;12.434;2022-09-09T09:27:32;98935.84;;;28.09;100.00
33280;BME280;20403;43.114;12.434;2022-09-09T09:29:59;98928.75;;;28.01;100.00
33280;BME280;20403;43.114;12.434;2022-09-09T09:32:25;98939.00;;;28.27;100.00
33280;BME280;20403;43.114;12.434;2022-09-09T09:34:54;98932.78;;;28.23;100.00
33280;BME280;20403;43.114;12.434;2022-09-09T09:37:28;98925.50;;;28.23;100.00
33280;BME280;20403;43.114;12.434;2022-09-09T09:39:54;98926.47;;;28.31;100.00
33280;BME280;20403;43.114;12.434;2022-09-09T09:42:19;98925.34;;;28.32;100.00
33280;BME280;20403;43.114;12.434;2022-09-09T09:44:45;98926.72;;;28.42;100.00
33280;BME280;20403;43.114;12.434;2022-09-09T09:47:11;98923.50;;;28.64;100.00
33280;BME280;20403;43.114;12.434;2022-09-09T09:49:38;98916.47;;;28.60;100.00
33280;BME280;20403;43.114;12.434;2022-09-09T09:52:04;98912.41;;;28.66;100.00
33280;BME280;20403;43.114;12.434;2022-09-09T09:54:31;98913.78;;;28.76;100.00
33280;BME280;20403;43.114;12.434;2022-09-09T09:57:07;98912.47;;;29.17;100.00
33280;BME280;20403;43.114;12.434;2022-09-09T09:59:36;98909.63;;;29.10;100.00
33280;BME280;20403;43.114;12.434;2022-09-09T10:02:17;98898.69;;;29.03;100.00
33280;BME280;20403;43.114;12.434;2022-09-09T10:04:43;98899.13;;;29.05;100.00
33280;BME280;20403;43.114;12.434;2022-09-09T10:07:15;98904.97;;;28.91;100.00
33280;BME280;20403;43.114;12.434;2022-09-09T10:09:42;98890.16;;;28.81;100.00
33280;BME280;20403;43.114;12.434;2022-09-09T10:17:28;98892.63;;;29.22;100.00
33280;BME280;20403;43.114;12.434;2022-09-09T10:20:15;98888.88;;;29.46;100.00
33280;BME280;20403;43.114;12.434;2022-09-09T10:22:45;98897.31;;;29.64;87.47
33280;BME280;20403;43.114;12.434;2022-09-09T10:25:23;98893.25;;;29.70;97.51
33280;BME280;20403;43.114;12.434;2022-09-09T10:28:06;98895.59;;;29.94;71.31
33280;BME280;20403;43.114;12.434;2022-09-09T10:33:09;98892.06;;;30.10;63.68
33280;BME280;20403;43.114;12.434;2022-09-09T10:38:16;98883.81;;;30.22;67.78
33280;BME280;20403;43.114;12.434;2022-09-09T10:56:34;98872.34;;;30.98;95.46
33280;BME280;20403;43.114;12.434;2022-09-09T11:03:54;98881.94;;;30.46;100.00
33280;BME280;20403;43.114;12.434;2022-09-09T11:06:23;98871.84;;;30.39;100.00
33280;BME280;20403;43.114;12.434;2022-09-09T11:08:50;98866.00;;;30.14;100.00
33280;BME280;20403;43.114;12.434;2022-09-09T11:14:00;98864.09;;;29.72;100.00
33280;BME280;20403;43.114;12.434;2022-09-09T11:16:40;98863.84;;;29.61;100.00
33280;BME280;20403;43.114;12.434;2022-09-09T11:21:40;98855.25;;;30.60;98.97
33280;BME280;20403;43.114;12.434;2022-09-09T11:26:59;98856.69;;;31.07;95.43
33280;BME280;20403;43.114;12.434;2022-09-09T11:32:46;98854.06;;;31.41;92.33
33280;BME280;20403;43.114;12.434;2022-09-09T11:40:23;98863.50;;;29.43;100.00
33280;BME280;20403;43.114;12.434;2022-09-09T11:42:49;98872.38;;;29.08;100.00
33280;BME280;20403;43.114;12.434;2022-09-09T11:47:55;98866.22;;;28.57;100.00
33280;BME280;20403;43.114;12.434;2022-09-09T11:52:47;98852.19;;;29.92;100.00
33280;BME280;20403;43.114;12.434;2022-09-09T11:55:29;98857.94;;;30.60;100.00
33280;BME280;20403;43.114;12.434;2022-09-09T11:58:01;98862.63;;;30.90;96.27
33280;BME280;20403;43.114;12.434;2022-09-09T12:02:58;98857.09;;;31.09;76.32
33280;BME280;20403;43.114;12.434;2022-09-09T12:05:24;98847.19;;;30.87;82.77
33280;BME280;20403;43.114;12.434;2022-09-09T12:08:00;98841.91;;;31.24;68.15
33280;BME280;20403;43.114;12.434;2022-09-09T12:13:16;98841.78;;;31.81;62.20
33280;BME280;20403;43.114;12.434;2022-09-09T12:15:52;98847.69;;;31.94;66.78
33280;BME280;20403;43.114;12.434;2022-09-09T12:18:25;98832.72;;;31.96;57.96
33280;BME280;20403;43.114;12.434;2022-09-09T12:23:31;98853.00;;;30.39;64.37
33280;BME280;20403;43.114;12.434;2022-09-09T12:31:14;98856.00;;;29.91;50.75
33280;BME280;20403;43.114;12.434;2022-09-09T12:33:42;98854.19;;;30.68;50.23
33280;BME280;20403;43.114;12.434;2022-09-09T12:36:11;98845.41;;;31.28;48.70
33280;BME280;20403;43.114;12.434;2022-09-09T12:38:39;98844.69;;;31.65;47.41
33280;BME280;20403;43.114;12.434;2022-09-09T12:41:05;98845.88;;;31.68;44.74
33280;BME280;20403;43.114;12.434;2022-09-09T12:43:31;98845.28;;;31.85;42.86
33280;BME280;20403;43.114;12.434;2022-09-09T12:46:21;98843.22;;;32.05;50.06
33280;BME280;20403;43.114;12.434;2022-09-09T12:48:42;98839.97;;;32.37;46.86
33280;BME280;20403;43.114;12.434;2022-09-09T12:53:51;98850.75;;;31.92;39.38
33280;BME280;20403;43.114;12.434;2022-09-09T12:56:23;98848.84;;;31.55;39.36
33280;BME280;20403;43.114;12.434;2022-09-09T12:58:51;98838.38;;;31.50;39.27
33280;BME280;20403;43.114;12.434;2022-09-09T13:01:25;98833.19;;;31.68;39.42
33280;BME280;20403;43.114;12.434;2022-09-09T13:03:50;98835.47;;;32.03;41.73
33280;BME280;20403;43.114;12.434;2022-09-09T13:06:20;98832.81;;;32.07;38.04
33280;BME280;20403;43.114;12.434;2022-09-09T13:08:47;98838.34;;;32.21;37.84
33280;BME280;20403;43.114;12.434;2022-09-09T13:11:13;98844.13;;;31.86;36.79
33280;BME280;20403;43.114;12.434;2022-09-09T13:13:42;98843.31;;;30.84;36.55
33280;BME280;20403;43.114;12.434;2022-09-09T13:16:21;98842.19;;;30.85;37.38
33280;BME280;20403;43.114;12.434;2022-09-09T13:18:47;98845.78;;;31.27;39.39
33280;BME280;20403;43.114;12.434;2022-09-09T13:21:13;98846.09;;;31.52;39.08
33280;BME280;20403;43.114;12.434;2022-09-09T13:23:39;98843.97;;;31.68;38.32
33280;BME280;20403;43.114;12.434;2022-09-09T13:26:20;98836.25;;;31.67;40.41
33280;BME280;20403;43.114;12.434;2022-09-09T13:28:49;98830.34;;;31.24;40.52
33280;BME280;20403;43.114;12.434;2022-09-09T13:31:35;98839.53;;;30.89;39.23
33280;BME280;20403;43.114;12.434;2022-09-09T13:34:10;98836.13;;;31.22;42.18
33280;BME280;20403;43.114;12.434;2022-09-09T13:36:35;98831.31;;;31.08;38.17
33280;BME280;20403;43.114;12.434;2022-09-09T13:39:02;98837.94;;;31.14;37.87
33280;BME280;20403;43.114;12.434;2022-09-09T13:41:29;98837.41;;;31.05;37.95
33280;BME280;20403;43.114;12.434;2022-09-09T13:43:55;98838.94;;;31.03;37.69
33280;BME280;20403;43.114;12.434;2022-09-09T13:48:56;98842.22;;;31.19;38.75
33280;BME280;20403;43.114;12.434;2022-09-09T13:51:27;98849.41;;;30.81;39.45
33280;BME280;20403;43.114;12.434;2022-09-09T13:53:54;98847.84;;;30.53;40.45
33280;BME280;20403;43.114;12.434;2022-09-09T13:56:19;98850.53;;;30.30;39.48
33280;BME280;20403;43.114;12.434;2022-09-09T13:58:45;98849.09;;;30.60;43.68
33280;BME280;20403;43.114;12.434;2022-09-09T14:01:10;98841.13;;;30.67;43.44
33280;BME280;20403;43.114;12.434;2022-09-09T14:03:36;98853.50;;;30.71;41.55
33280;BME280;20403;43.114;12.434;2022-09-09T14:06:02;98842.09;;;30.55;40.99
33280;BME280;20403;43.114;12.434;2022-09-09T14:08:27;98847.13;;;30.33;42.71
33280;BME280;20403;43.114;12.434;2022-09-09T14:11:01;98854.91;;;30.39;43.83
33280;BME280;20403;43.114;12.434;2022-09-09T14:13:27;98845.69;;;30.40;43.53
33280;BME280;20403;43.114;12.434;2022-09-09T14:15:52;98850.47;;;30.27;42.18
33280;BME280;20403;43.114;12.434;2022-09-09T14:18:17;98847.06;;;30.07;43.63
33280;BME280;20403;43.114;12.434;2022-09-09T14:20:43;98852.53;;;29.91;42.42
33280;BME280;20403;43.114;12.434;2022-09-09T14:23:09;98860.88;;;29.66;46.55
33280;BME280;20403;43.114;12.434;2022-09-09T14:25:35;98865.81;;;29.64;46.79
33280;BME280;20403;43.114;12.434;2022-09-09T14:28:00;98860.69;;;29.56;45.28
33280;BME280;20403;43.114;12.434;2022-09-09T14:30:27;98858.34;;;29.54;45.87
33280;BME280;20403;43.114;12.434;2022-09-09T14:32:52;98858.63;;;29.29;44.76
33280;BME280;20403;43.114;12.434;2022-09-09T14:35:17;98863.03;;;29.38;48.38
33280;BME280;20403;43.114;12.434;2022-09-09T14:37:43;98858.41;;;29.38;49.31
33280;BME280;20403;43.114;12.434;2022-09-09T14:40:09;98860.88;;;29.27;48.97
33280;BME280;20403;43.114;12.434;2022-09-09T14:42:36;98859.91;;;29.16;49.57
33280;BME280;20403;43.114;12.434;2022-09-09T14:45:01;98856.78;;;29.33;50.93
33280;BME280;20403;43.114;12.434;2022-09-09T14:47:27;98875.03;;;29.24;50.44
33280;BME280;20403;43.114;12.434;2022-09-09T14:49:52;98867.78;;;29.09;46.21
33280;BME280;20403;43.114;12.434;2022-09-09T14:52:18;98867.53;;;28.98;50.71
33280;BME280;20403;43.114;12.434;2022-09-09T14:54:43;98872.03;;;28.94;46.81
33280;BME280;20403;43.114;12.434;2022-09-09T14:57:08;98877.16;;;28.83;47.84
33280;BME280;20403;43.114;12.434;2022-09-09T14:59:34;98871.19;;;28.74;48.42
33280;BME280;20403;43.114;12.434;2022-09-09T15:01:59;98879.63;;;28.73;48.39